Timeline UpdatesTrip UpdatesNews PostsPvt Posts♥♥Travel TipsAdmin PostsConv PostsFollowed PostsChat RequestsBlog PostsPNR Posts

Disclaimer
Search
 
 
Sat Nov 29, 2014 10:36:35 ISTHomeTrainsΣChainsAtlasPNRForumGalleryNewsFAQTripsMembersLoginFeedback
No Recent News for this Train
Other Trains in the News **new
Latest...
Will be short terminated at Faizabad from 27/11 to 04/12.
Mon Nov 25, 2013 (01:33PM)
⇐ Return Journey: Train# 54333

54334/Lucknow Varanasi Passenger (UnReserved)

Time-Table HAS CHANGED.
Sep 02 2014 (11:42PM)
Change Departure Station:
Change Arrival Station:
Post a Train Travel TipPost a Train Travel Tip **new
Post a Comment/Question/Picture/VideoPost a Comment/Question/Picture/Video
Pantry/Catering
???
RSA - Rake Sharing
Rake/Coach Composition
Loco
LKO WDM-3A
News    PNR    Forum    Time-Table    Availability    Fare Chart    Map    Arr/Dep History    Trips    Gallery    ΣChains    X/O    Timeline    
Travel Time: 6h 24m    33 halts    Distance: 260 km    Avg Speed: 40 km/hr
Type: Passenger
Zone: NR/Northern
Departs @ 12:45 (Avg 9m late)
Platform# 6
SMTWTFS
Lucknow Charbagh NR/LKO 
Arrives @ 19:09 (Avg 4h 20m late)
Platform# 1
SMTWTFS
Mahgawan Halt/MGWN 

33 halts. 33 intermediate Stations between Lucknow Charbagh NR and Mahgawan Halt

Show ALL intermediate Stations  Show Old Time-Table

#TrkCodeStation NameX/OArrivesAvgDepartsAvgHaltPFDay#KmSpeedElevZoneAddress
1/==/LKOLucknow Charbagh NR (9)»  -12:45+9610.036124mNR226004, Uttar Pradesh
2/==/MLMalhaur (3)  13:05+1:1513:06+1:161m--112.041120mNRLucknow, Uttar Pradesh
3/--/JRRJugaur (1)  13:14-13:15-1m1117.529123mNRCanal Rd, Uttar Pradesh
4/==/SFHSafedabad (3)X  13:22+1:1413:23+1:161m--120.833121mNRBarabanki, Uttar Pradesh
5/==/BBKBarabanki Junction (4)X  13:37+2813:38+311m--128.537124mNRPin-225001, Uttar Pradesh
6|--|RESRasauliX  13:50+1:2313:51+1:311m--135.859125mNRFaizabad Rd, Uttar Pradesh
7|--|SGJSafdarGanjX  14:02+1:3114:03+1:311m--146.655116mNRFaizabad Rd, Uttar Pradesh
8|--|SYKSaidkhanpurX  14:14+1:3014:15+1:301m--156.853116mNRSaidkhanpur, Uttar Pradesh
9|--|DYDDaryabad  14:26+1:3014:27+1:341m--166.557116mNRFaizabad Rd, Uttar Pradesh
10|--|PTHPatranga  14:36+1:3414:37+1:341m--175.060113mNRFaizabad Rd, Uttar Pradesh
11|--|RZNRauzagaonX  14:46+1:3614:47+1:381m--184.148111mNRFaizabad Rd, Uttar Pradesh
12|--|RDLRudauli (2)  14:54+1:2414:55+1:301m--189.643112mNRRudauli, Uttar Pradesh
13|--|GMUGauriyamau  15:02-15:03-1m--194.637108mNRFaizabad Rd, Uttar Pradesh
14|--|BNMBaragaon  15:10+1:4615:11+1:561m--198.951115mNRFaizabad Rd, Uttar Pradesh
15|--|DELODeorakotX  15:18+1:5615:19+1:591m--1104.858110mNRDewracoat, Uttar Pradesh
16|--|SLWSohwal  15:27+2:0215:28+2:261m--1112.449107mNRFaizabad Rd, Uttar Pradesh
17|--|SLRPSalarpur  15:36+2:2815:37+2:351m--1119.021106mNRJaganpur, Uttar Pradesh
18|--|FDFaizabad Junction (5)  16:02+1:3816:10+1:458m--1127.713104mNRFaizabad, Uttar Pradesh
19|--|ACNDAcharya Narendra Dev NagarX  16:20+2:4716:21+2:511m--1129.930104mNRFaizabad, Uttar Pradesh
20|--|AYAyodhya Junction (3)  16:31 16:30+2:5316:32 16:31+2:531m11134.44298mNRAyodhya, Uttar Pradesh
21|--|DRGDarshannagar (2)  16:38+2:5716:39+3:001m--1139.466103mNRayodhya, Uttar Pradesh
22|--|BLGBilhar Ghat  16:48+3:0116:49+3:211m--1149.357104mNRNawab Yousuf Rd, Uttar Pradesh
23|--|ULNUlna BhariX  16:58+3:2216:59+3:381m--1157.856104mNRNawab Yousuf Rd, Uttar Pradesh
24|--|GGJGoshainGanj (3)X  17:08+2:4017:09+2:411m--1166.16498mNRGoshainganj, Uttar Pradesh
25|--|KTHEKatahriX  17:19+3:4317:20+3:511m--1176.75095mNRKatehri, Uttar Pradesh
26|--|ABPAkbarpur Junction (2)X  17:33 17:34+1:5417:34 17:38+1:561 4m--1188.35092mNRAkbarpur, Uttar Pradesh
27|--|JFGJafarganjX  17:44 17:49+3:5617:45 17:50+3:591m--1197.65492mNRNawab Yousuf Rd, Uttar Pradesh
28|--|MLPRMalipur (2)  17:54 18:01+3:4917:55 18:02+3:491m--1207.45192mNRMalipur, Uttar Pradesh
29|--|TLGRTulsi Nagar  18:04 18:11+4:0018:05 18:12+4:041m--1215.14891mNRNawab Yousuf Rd, Uttar Pradesh
30|--|BWIBilwai (1)X  18:13 18:20+4:0418:14 18:21+4:061m11221.55191mNRBilwai, Uttar Pradesh
31|--|SHGShahganj Junction (4)X  18:24 18:34+2:4018:28 18:38+2:434m31232.44690mNRShahganj, Uttar Pradesh
32|--|KSKheta Sarai (1)X  18:44 18:52+4:1818:45 18:53+4:181m11243.14988mNRKheta Sarai, Uttar Pradesh
33|--|MNKNManikalan Halt (1)  18:52 18:59-18:53 19:00-1m11248.04985mNRNawab Yousuf Rd, Uttar Pradesh
34|--|MIHMihrawan (1)  18:59 19:07+4:1419:00 19:08+4:141m11253.7-88mNRChak Bhavani Shanker, Uttar Pradesh
35|--|MGWNMahgawan Halt (1)•  19:09+4:2019:10+4:201m11259.6484mNRDalhanpur, Uttar Pradesh
36|--|JNUJaunpur Junction (5)X  20:51+1:5820:53+2:032m11265.82083mNRJaunpur, Uttar Pradesh
37|--|ZBDZafarabad Junction (4)X  21:12+2:5521:13+2:561m--1272.23383mNRNational Highway 56, Uttar Pradesh
38/==/SIQSarkoni (2)X  21:24+2:5421:25+2:541m21278.35185mNRBandipur, Uttar Pradesh
39/==/JLLJalalGanj (2)X  21:38 21:32+2:5521:39 21:34+2:541 2m21284.25387mNRJalalganj Railway Station, Uttar Pradesh
40/==/TLMDTrilochan Mahdo (2)O  21:51 21:41+2:5521:52 21:43+2:541 2m21290.44483mNRNational Highway 56, Uttar Pradesh
41/==/KSFKhalispur (2)O  22:04 21:50+2:5522:05 21:52+3:121 2m21295.64783mNRPhulpur, Uttar Pradesh
42/==/PDRDPindra Road (2)  22:11 21:57-22:12 21:59-1 2m21299.46581mNRSatomahua-Mangari Rd, Uttar Pradesh
43/==/BTPBabatpur (2)  22:18 22:04+3:1422:19 22:06+3:131 2m21304.96684mNRSatomahua-Mangari Rd, Uttar Pradesh
44/==/BRPTBirapatti (2)X  22:28 22:12+3:1722:29 22:14+3:191 2m--1311.54884mNRRd Varanasi Uttar Pradesh, Uttar Pradesh
45/==/SOPShivpur (3)X  22:40 22:22+3:2122:41 22:23+3:211m--1317.82081mNRVaranasi, Uttar Pradesh
46/==/BSBVaranasi Junction (9)  22:55 22:40+1:43-71323.4-82mNRVaranasi 221002, Uttar Pradesh
Scroll to Top
Scroll to Bottom


Go to Mobile site